createdAt,value
2018-11-10T00:00:18.705Z,71.20
2018-11-10T00:02:48.606Z,77.67
2018-11-10T00:05:18.516Z,76.20
2018-11-10T00:07:47.421Z,74.37
2018-11-10T00:10:17.091Z,68.73
2018-11-10T00:12:46.378Z,76.43
2018-11-10T00:15:15.293Z,72.67
2018-11-10T00:17:44.158Z,77.70
2018-11-10T00:20:13.003Z,80.30
2018-11-10T00:22:42.142Z,70.50
2018-11-10T00:25:12.176Z,77.30
2018-11-10T00:27:41.987Z,75.07
2018-11-10T00:30:12.422Z,79.67
2018-11-10T00:32:41.811Z,79.63
2018-11-10T00:35:10.679Z,77.40
2018-11-10T00:37:39.650Z,69.93
2018-11-10T00:40:11.091Z,81.13
2018-11-10T00:42:40.143Z,74.23
2018-11-10T00:45:09.113Z,75.10
2018-11-10T00:47:38.331Z,75.23
2018-11-10T00:50:08.031Z,69.60
2018-11-10T00:52:37.012Z,68.70
2018-11-10T00:55:05.970Z,71.57
2018-11-10T00:57:34.843Z,67.43
2018-11-10T01:00:03.970Z,71.13
2018-11-10T01:02:32.899Z,71.60
2018-11-10T01:05:01.728Z,72.27
2018-11-10T01:07:30.606Z,72.43
2018-11-10T01:09:59.486Z,70.60
2018-11-10T01:12:28.827Z,72.80
2018-11-10T01:14:58.487Z,67.80
2018-11-10T01:17:27.273Z,68.30
2018-11-10T01:19:56.111Z,65.27
2018-11-10T01:22:24.970Z,66.30
2018-11-10T01:24:53.794Z,67.87
2018-11-10T01:27:22.711Z,60.90
2018-11-10T01:29:51.559Z,66.10
2018-11-10T01:32:20.382Z,59.50
2018-11-10T01:34:49.187Z,62.73
2018-11-10T01:37:18.022Z,64.43
2018-11-10T01:39:46.822Z,60.37
2018-11-10T01:42:15.674Z,61.17
2018-11-10T01:44:44.499Z,61.57
2018-11-10T01:47:13.628Z,59.53
2018-11-10T01:49:42.850Z,57.57
2018-11-10T01:52:11.678Z,60.00
2018-11-10T01:54:40.535Z,55.07
2018-11-10T01:57:09.377Z,58.33
2018-11-10T01:59:38.210Z,59.37
2018-11-10T02:02:07.069Z,59.03
2018-11-10T02:04:35.923Z,56.57
2018-11-10T02:07:04.931Z,61.70
2018-11-10T02:09:33.818Z,62.20
2018-11-10T02:12:02.631Z,61.67
2018-11-10T02:14:31.486Z,61.10
2018-11-10T02:17:00.424Z,59.00
2018-11-10T02:19:29.292Z,55.67
2018-11-10T02:21:58.198Z,55.33
2018-11-10T02:24:27.103Z,54.33
2018-11-10T02:26:56.043Z,54.90
2018-11-10T02:29:24.930Z,50.23
2018-11-10T02:31:53.781Z,55.37
2018-11-10T02:34:22.599Z,55.70
2018-11-10T02:36:51.535Z,54.43
2018-11-10T02:39:20.342Z,54.00
2018-11-10T02:41:49.179Z,58.17
2018-11-10T02:44:17.989Z,59.17
2018-11-10T02:46:46.936Z,54.47
2018-11-10T02:49:15.723Z,56.47
2018-11-10T02:51:44.534Z,59.70
2018-11-10T02:54:13.371Z,53.87
2018-11-10T02:56:42.240Z,52.90
2018-11-10T02:59:18.738Z,53.03
2018-11-10T03:01:49.506Z,54.07
2018-11-10T03:04:18.397Z,48.70
2018-11-10T03:06:47.269Z,56.67
2018-11-10T03:09:16.131Z,49.07
2018-11-10T03:11:44.978Z,51.30
2018-11-10T03:14:13.827Z,50.00
2018-11-10T03:16:42.726Z,48.73
2018-11-10T03:19:11.570Z,47.07
2018-11-10T03:21:40.427Z,50.37
2018-11-10T03:24:09.273Z,50.50
2018-11-10T03:26:38.179Z,53.67
2018-11-10T03:29:07.040Z,52.80
2018-11-10T03:31:35.866Z,53.70
2018-11-10T03:34:04.711Z,50.80
2018-11-10T03:36:33.631Z,53.60
2018-11-10T03:39:02.566Z,52.80
2018-11-10T03:41:31.392Z,53.83
2018-11-10T03:44:00.198Z,51.50
2018-11-10T03:46:29.070Z,53.20
2018-11-10T03:48:57.989Z,49.90
2018-11-10T03:51:26.714Z,49.10
2018-11-10T03:53:55.522Z,51.63
2018-11-10T03:56:25.459Z,49.50
2018-11-10T03:58:54.310Z,51.97
2018-11-10T04:01:23.199Z,51.50
2018-11-10T04:03:52.062Z,49.50
2018-11-10T04:06:21.567Z,51.33
2018-11-10T04:08:50.419Z,51.90
2018-11-10T04:11:19.275Z,47.80
2018-11-10T04:13:48.102Z,51.30
2018-11-10T04:16:16.987Z,51.23
2018-11-10T04:18:45.826Z,52.47
2018-11-10T04:21:14.661Z,51.50
2018-11-10T04:23:43.558Z,50.90
2018-11-10T04:26:12.443Z,49.07
2018-11-10T04:28:41.478Z,51.00
2018-11-10T04:31:10.292Z,50.50
2018-11-10T04:33:39.119Z,49.67
2018-11-10T04:36:08.103Z,47.77
2018-11-10T04:38:36.947Z,50.13
2018-11-10T04:41:06.314Z,47.20
2018-11-10T04:43:35.151Z,48.80
2018-11-10T04:46:04.107Z,48.30
2018-11-10T04:48:32.929Z,50.63
2018-11-10T04:51:01.786Z,51.10
2018-11-10T04:53:30.600Z,50.13
2018-11-10T04:55:59.474Z,47.27
2018-11-10T04:58:28.307Z,47.97
2018-11-10T05:00:57.631Z,44.77
2018-11-10T05:03:26.491Z,45.77
2018-11-10T05:05:55.435Z,47.60
2018-11-10T05:08:24.259Z,44.90
2018-11-10T05:10:53.105Z,44.47
2018-11-10T05:13:21.931Z,42.03
2018-11-10T05:15:50.827Z,42.20
2018-11-10T05:18:19.719Z,45.13
2018-11-10T05:20:48.534Z,41.43
2018-11-10T05:23:17.360Z,42.40
2018-11-10T05:25:46.218Z,45.83
2018-11-10T05:28:15.058Z,40.87
2018-11-10T05:30:43.891Z,41.53
2018-11-10T05:33:12.743Z,41.60
2018-11-10T05:35:41.607Z,41.33
2018-11-10T05:38:10.419Z,43.40
2018-11-10T05:40:39.291Z,44.30
2018-11-10T05:43:08.123Z,40.97
2018-11-10T05:45:37.072Z,43.67
2018-11-10T05:48:06.386Z,45.63
2018-11-10T05:50:35.242Z,45.10
2018-11-10T05:53:04.155Z,42.87
2018-11-10T05:55:33.110Z,43.63
2018-11-10T05:58:01.943Z,42.87
2018-11-10T06:00:33.214Z,44.17
2018-11-10T06:03:02.085Z,45.40
2018-11-10T06:05:30.946Z,40.97
2018-11-10T06:07:59.791Z,38.97
2018-11-10T06:10:28.761Z,41.03
2018-11-10T06:12:57.586Z,41.83
2018-11-10T06:15:26.903Z,38.43
2018-11-10T06:17:55.811Z,39.27
2018-11-10T06:20:24.650Z,38.67
2018-11-10T06:22:53.866Z,40.80
2018-11-10T06:25:22.776Z,38.10
2018-11-10T06:27:51.629Z,37.17
2018-11-10T06:30:20.479Z,37.10
2018-11-10T06:32:49.311Z,36.90
2018-11-10T06:35:18.270Z,36.00
2018-11-10T06:37:47.110Z,37.03
2018-11-10T06:40:15.943Z,34.40
2018-11-10T06:42:44.792Z,36.70
2018-11-10T06:45:13.744Z,36.67
2018-11-10T06:47:42.578Z,35.23
2018-11-10T06:50:11.756Z,36.00
2018-11-10T06:52:40.622Z,36.40
2018-11-10T06:55:10.331Z,34.30
2018-11-10T06:57:39.243Z,35.37
2018-11-10T07:00:15.367Z,34.83
2018-11-10T07:02:44.287Z,35.80
2018-11-10T07:05:13.363Z,33.10
2018-11-10T07:07:42.295Z,33.13
2018-11-10T07:10:11.583Z,33.43
2018-11-10T07:12:40.507Z,32.83
2018-11-10T07:15:09.981Z,28.20
2018-11-10T07:17:39.260Z,31.00
2018-11-10T07:20:08.271Z,30.47
2018-11-10T07:22:37.228Z,30.20
2018-11-10T07:25:06.870Z,29.70
2018-11-10T07:27:36.009Z,30.67
2018-11-10T07:30:07.907Z,30.80
2018-11-10T07:32:37.116Z,30.87
2018-11-10T07:35:07.204Z,29.63
2018-11-10T07:37:36.732Z,32.03
2018-11-10T07:40:08.874Z,31.03
2018-11-10T07:42:38.035Z,29.37
2018-11-10T07:45:10.168Z,31.30
2018-11-10T07:47:39.091Z,30.00
2018-11-10T07:50:09.611Z,31.10
2018-11-10T07:52:38.887Z,31.47
2018-11-10T07:55:09.223Z,31.60
2018-11-10T07:57:38.075Z,28.97
2018-11-10T08:00:15.817Z,29.17
2018-11-10T08:02:45.100Z,30.30
2018-11-10T08:05:15.186Z,31.43
2018-11-10T08:07:44.716Z,30.60
2018-11-10T08:10:14.461Z,29.23
2018-11-10T08:12:43.471Z,33.33
2018-11-10T08:15:13.640Z,29.93
2018-11-10T08:17:42.816Z,29.30
2018-11-10T08:20:12.216Z,30.40
2018-11-10T08:22:41.130Z,29.93
2018-11-10T08:25:12.195Z,28.57
2018-11-10T08:27:41.060Z,26.40
2018-11-10T08:30:11.809Z,28.03
2018-11-10T08:32:41.554Z,25.33
2018-11-10T08:39:11.090Z,26.47
2018-11-10T08:41:40.205Z,23.60
2018-11-10T08:44:09.405Z,22.50
2018-11-10T08:46:41.556Z,23.00
2018-11-10T08:49:11.098Z,19.70
2018-11-10T08:51:40.501Z,21.20
2018-11-10T08:54:10.733Z,22.17
2018-11-10T08:56:40.342Z,21.07
2018-11-10T08:59:14.094Z,22.43
2018-11-10T09:01:42.901Z,19.63
2018-11-10T09:04:11.755Z,19.37
2018-11-10T09:06:40.719Z,20.90
2018-11-10T09:09:10.334Z,21.83
2018-11-10T09:11:39.206Z,21.30
2018-11-10T09:14:08.311Z,20.83
2018-11-10T09:16:37.235Z,21.47
2018-11-10T09:19:06.095Z,20.13
2018-11-10T09:21:35.027Z,21.33
2018-11-10T09:24:03.907Z,22.00
2018-11-10T09:26:33.687Z,21.97
2018-11-10T09:29:02.545Z,21.63
2018-11-10T09:31:31.451Z,21.83
2018-11-10T09:34:00.484Z,24.67
2018-11-10T09:36:29.530Z,26.53
2018-11-10T09:38:58.327Z,23.77
2018-11-10T09:41:27.219Z,23.93
2018-11-10T09:43:56.735Z,23.03
2018-11-10T09:46:25.635Z,24.00
2018-11-10T09:48:54.515Z,22.80
2018-11-10T09:51:23.372Z,25.13
2018-11-10T09:53:52.260Z,24.93
2018-11-10T09:56:21.195Z,22.87
2018-11-10T09:58:50.035Z,23.87
2018-11-10T10:01:18.995Z,21.43
2018-11-10T10:03:47.850Z,21.80
2018-11-10T10:06:16.743Z,22.27
2018-11-10T10:08:46.423Z,24.80
2018-11-10T10:11:15.937Z,23.17
2018-11-10T10:13:44.787Z,23.10
2018-11-10T10:16:13.850Z,21.73
2018-11-10T10:18:42.634Z,21.90
2018-11-10T10:21:11.520Z,22.77
2018-11-10T10:23:40.354Z,23.17
2018-11-10T10:26:09.423Z,21.27
2018-11-10T10:28:38.411Z,21.93
2018-11-10T10:31:07.260Z,20.13
2018-11-10T10:33:37.128Z,20.70
2018-11-10T10:36:06.046Z,22.23
2018-11-10T10:38:34.959Z,22.90
2018-11-10T10:41:03.935Z,23.97
2018-11-10T10:43:32.799Z,21.33
2018-11-10T10:46:01.788Z,24.07
2018-11-10T10:48:30.705Z,24.13
2018-11-10T10:50:59.547Z,24.73
2018-11-10T10:53:28.384Z,22.30
2018-11-10T10:55:57.387Z,21.57
2018-11-10T10:58:26.243Z,21.97
2018-11-10T11:01:00.811Z,26.47
2018-11-10T11:03:35.282Z,23.10
2018-11-10T11:06:04.167Z,22.10
2018-11-10T11:08:33.039Z,23.20
2018-11-10T11:11:01.919Z,20.40
2018-11-10T11:13:30.752Z,22.23
2018-11-10T11:15:59.624Z,22.60
2018-11-10T11:18:28.479Z,22.30
2018-11-10T11:20:57.334Z,22.67
2018-11-10T11:23:26.191Z,19.80
2018-11-10T11:25:55.048Z,20.67
2018-11-10T11:28:23.899Z,20.73
2018-11-10T11:30:52.745Z,20.30
2018-11-10T11:33:21.668Z,20.30
2018-11-10T11:35:50.900Z,21.67
2018-11-10T11:38:19.889Z,20.53
2018-11-10T11:40:48.801Z,20.53
2018-11-10T11:43:17.768Z,22.23
2018-11-10T11:45:47.002Z,21.13
2018-11-10T11:48:15.989Z,22.37
2018-11-10T11:50:45.206Z,20.40
2018-11-10T11:53:14.436Z,18.33
2018-11-10T11:55:43.713Z,20.67
2018-11-10T11:58:13.143Z,19.77
2018-11-10T12:00:42.116Z,21.70
2018-11-10T12:03:11.027Z,19.73
2018-11-10T12:05:40.052Z,21.23
2018-11-10T12:08:09.229Z,18.00
2018-11-10T12:10:38.511Z,18.17
2018-11-10T12:13:07.615Z,16.43
2018-11-10T12:15:40.500Z,15.17
2018-11-10T12:18:09.937Z,14.47
2018-11-10T12:20:38.959Z,15.70
2018-11-10T12:23:08.031Z,18.03
2018-11-10T12:25:37.576Z,14.60
2018-11-10T12:28:06.613Z,12.40
2018-11-10T12:30:35.798Z,14.57
2018-11-10T12:33:05.064Z,13.20
2018-11-10T12:35:34.473Z,12.47
2018-11-10T12:38:03.731Z,11.90
2018-11-10T12:40:32.947Z,12.90
2018-11-10T12:43:01.957Z,14.27
2018-11-10T12:45:31.089Z,12.73
2018-11-10T12:48:00.284Z,12.53
2018-11-10T12:50:29.286Z,10.87
2018-11-10T12:52:58.122Z,10.77
2018-11-10T12:55:27.016Z,11.83
2018-11-10T12:57:55.869Z,12.57
2018-11-10T13:00:31.450Z,11.27
2018-11-10T13:03:00.312Z,11.37
2018-11-10T13:05:29.339Z,11.37
2018-11-10T13:07:58.235Z,11.10
2018-11-10T13:10:27.089Z,11.47
2018-11-10T13:12:56.104Z,11.40
2018-11-10T13:15:24.995Z,11.80
2018-11-10T13:17:53.823Z,11.57
2018-11-10T13:20:22.705Z,11.63
2018-11-10T13:22:51.568Z,12.93
2018-11-10T13:25:20.443Z,12.33
2018-11-10T13:27:49.296Z,12.00
2018-11-10T13:30:18.127Z,11.50
2018-11-10T13:32:46.968Z,11.47
2018-11-10T13:35:15.809Z,11.07
2018-11-10T13:37:44.657Z,12.10
2018-11-10T13:40:13.510Z,11.80
2018-11-10T13:42:42.373Z,11.77
2018-11-10T13:45:12.627Z,12.70
2018-11-10T13:47:41.979Z,13.73
2018-11-10T13:50:12.080Z,13.10
2018-11-10T13:52:42.325Z,11.23
2018-11-10T13:55:11.919Z,13.20
2018-11-10T13:57:41.099Z,11.33
2018-11-10T14:00:17.666Z,11.23
2018-11-10T14:02:47.163Z,11.23
2018-11-10T14:05:16.520Z,11.53
2018-11-10T14:07:45.803Z,11.80
2018-11-10T14:10:15.514Z,11.60
2018-11-10T14:12:51.352Z,10.30
2018-11-10T14:15:20.416Z,11.17
2018-11-10T14:17:49.541Z,12.10
2018-11-10T14:20:18.518Z,12.67
2018-11-10T14:22:48.503Z,12.97
2018-11-10T14:25:17.924Z,11.13
2018-11-10T14:27:46.841Z,13.30
2018-11-10T14:30:17.208Z,11.37
2018-11-10T14:32:46.723Z,13.53
2018-11-10T14:35:15.659Z,13.60
2018-11-10T14:37:44.527Z,13.10
2018-11-10T14:40:15.072Z,11.13
2018-11-10T14:42:44.355Z,11.20
2018-11-10T14:45:15.210Z,11.97
2018-11-10T14:47:44.614Z,11.10
2018-11-10T14:50:14.658Z,11.83
2018-11-10T14:52:43.929Z,11.60
2018-11-10T14:55:14.381Z,11.23
2018-11-10T14:57:43.435Z,12.43
2018-11-10T15:00:18.246Z,11.40
2018-11-10T15:02:48.126Z,10.63
2018-11-10T15:05:19.159Z,11.70
2018-11-10T15:07:48.099Z,11.63
2018-11-10T15:10:17.622Z,11.97
2018-11-10T15:12:47.115Z,10.70
2018-11-10T15:15:17.840Z,10.47
2018-11-10T15:17:47.091Z,9.40
2018-11-10T15:20:17.436Z,10.07
2018-11-10T15:22:46.489Z,9.27
2018-11-10T15:25:16.830Z,11.23
2018-11-10T15:27:45.662Z,10.27
2018-11-10T15:30:16.678Z,11.23
2018-11-10T15:32:46.236Z,12.27
2018-11-10T15:35:16.359Z,10.73
2018-11-10T15:37:46.479Z,9.53
2018-11-10T15:40:27.235Z,11.27
2018-11-10T15:42:56.092Z,11.23
2018-11-10T15:45:24.991Z,11.40
2018-11-10T15:47:53.857Z,12.87
2018-11-10T15:50:22.797Z,12.00
2018-11-10T15:52:51.596Z,11.50
2018-11-10T15:55:20.446Z,13.07
2018-11-10T15:57:49.343Z,12.47
2018-11-10T16:00:19.652Z,13.47
2018-11-10T16:02:48.502Z,11.93
2018-11-10T16:05:17.363Z,11.97
2018-11-10T16:07:46.234Z,12.43
2018-11-10T16:10:15.186Z,11.80
2018-11-10T16:12:43.995Z,14.50
2018-11-10T16:15:14.258Z,13.43
2018-11-10T16:17:43.614Z,15.17
2018-11-10T16:20:15.728Z,16.73
2018-11-10T16:22:46.894Z,16.70
2018-11-10T16:25:16.226Z,14.03
2018-11-10T16:27:45.441Z,16.77
2018-11-10T16:30:15.487Z,14.23
2018-11-10T16:32:44.612Z,15.53
2018-11-10T16:35:13.512Z,16.47
2018-11-10T16:37:42.371Z,16.50
2018-11-10T16:40:14.496Z,16.07
2018-11-10T16:42:44.372Z,19.40
2018-11-10T16:45:13.952Z,18.43
2018-11-10T16:47:42.817Z,19.23
2018-11-10T16:50:11.659Z,18.17
2018-11-10T16:52:41.559Z,18.17
2018-11-10T16:55:10.551Z,18.93
2018-11-10T16:57:39.537Z,18.30
2018-11-10T17:00:18.535Z,18.20
2018-11-10T17:02:47.427Z,17.10
2018-11-10T17:05:16.772Z,18.57
2018-11-10T17:07:45.770Z,17.10
2018-11-10T17:10:16.099Z,18.37
2018-11-10T17:12:44.971Z,18.00
2018-11-10T17:15:14.001Z,17.17
2018-11-10T17:17:42.838Z,17.50
2018-11-10T17:20:13.919Z,18.33
2018-11-10T17:22:43.383Z,17.47
2018-11-10T17:25:13.237Z,17.90
2018-11-10T17:27:42.749Z,17.70
2018-11-10T17:30:14.617Z,17.33
2018-11-10T17:32:43.691Z,19.20
2018-11-10T17:35:13.003Z,19.60
2018-11-10T17:37:42.573Z,18.37
2018-11-10T17:40:18.286Z,18.80
2018-11-10T17:42:47.128Z,18.23
2018-11-10T17:45:17.339Z,18.47
2018-11-10T17:47:46.691Z,18.10
2018-11-10T17:50:16.663Z,17.70
2018-11-10T17:52:45.626Z,16.37
2018-11-10T17:55:15.562Z,17.90
2018-11-10T17:57:44.954Z,20.70
2018-11-10T18:00:15.144Z,21.87
2018-11-10T18:02:45.040Z,21.90
2018-11-10T18:05:15.035Z,20.97
2018-11-10T18:07:44.107Z,19.87
2018-11-10T18:10:14.438Z,21.67
2018-11-10T18:12:44.167Z,20.73
2018-11-10T18:15:13.956Z,20.53
2018-11-10T18:17:43.414Z,21.80
2018-11-10T18:20:13.712Z,22.33
2018-11-10T18:22:43.727Z,21.23
2018-11-10T18:25:13.030Z,19.90
2018-11-10T18:27:42.751Z,19.13
2018-11-10T18:30:13.351Z,19.50
2018-11-10T18:32:42.771Z,20.80
2018-11-10T18:35:12.883Z,20.80
2018-11-10T18:37:42.257Z,20.97
2018-11-10T18:40:11.677Z,22.10
2018-11-10T18:42:40.806Z,21.17
2018-11-10T18:45:10.876Z,21.23
2018-11-10T18:47:41.589Z,21.87
2018-11-10T18:50:14.360Z,21.73
2018-11-10T18:52:43.956Z,23.87
2018-11-10T18:55:14.161Z,21.57
2018-11-10T18:57:43.640Z,22.10
2018-11-10T19:00:15.702Z,23.37
2018-11-10T19:02:45.320Z,24.00
2018-11-10T19:05:16.246Z,22.33
2018-11-10T19:07:45.449Z,22.97
2018-11-10T19:10:15.936Z,24.80
2018-11-10T19:12:44.952Z,24.70
2018-11-10T19:15:18.426Z,22.07
2018-11-10T19:17:47.366Z,22.37
2018-11-10T19:20:17.487Z,21.73
2018-11-10T19:22:46.776Z,22.77
2018-11-10T19:25:15.687Z,25.77
2018-11-10T19:27:44.591Z,25.17
2018-11-10T19:30:14.796Z,26.57
2018-11-10T19:32:44.391Z,23.10
2018-11-10T19:35:13.926Z,25.57
2018-11-10T19:37:43.092Z,25.53
2018-11-10T19:40:12.335Z,26.13
2018-11-10T19:42:42.414Z,23.63
2018-11-10T19:45:12.045Z,23.57
2018-11-10T19:47:42.136Z,23.37
2018-11-10T19:50:11.829Z,23.63
2018-11-10T19:52:40.747Z,21.60
2018-11-10T19:55:14.567Z,22.97
2018-11-10T19:57:43.571Z,24.50
2018-11-10T20:00:27.376Z,21.50
2018-11-10T20:02:58.141Z,21.90
2018-11-10T20:05:27.078Z,23.50
2018-11-10T20:07:55.951Z,22.53
2018-11-10T20:10:24.843Z,23.70
2018-11-10T20:12:53.743Z,23.40
2018-11-10T20:15:22.651Z,25.50
2018-11-10T20:17:51.539Z,22.37
2018-11-10T20:20:20.420Z,22.00
2018-11-10T20:22:49.308Z,22.50
2018-11-10T20:25:18.840Z,24.77
2018-11-10T20:27:47.727Z,24.10
2018-11-10T20:30:17.971Z,24.00
2018-11-10T20:32:47.091Z,23.13
2018-11-10T20:35:15.951Z,23.40
2018-11-10T20:37:45.444Z,23.13
2018-11-10T20:40:15.177Z,24.10
2018-11-10T20:42:44.019Z,22.03
2018-11-10T20:45:16.426Z,21.27
2018-11-10T20:47:45.288Z,22.90
2018-11-10T20:50:14.643Z,22.07
2018-11-10T20:52:43.491Z,23.17
2018-11-10T20:55:12.851Z,19.93
2018-11-10T20:57:48.628Z,22.07
2018-11-10T21:00:26.609Z,22.50
2018-11-10T21:02:57.688Z,21.93
2018-11-10T21:05:26.588Z,20.50
2018-11-10T21:07:55.435Z,22.23
2018-11-10T21:10:24.311Z,23.90
2018-11-10T21:12:53.176Z,22.97
2018-11-10T21:15:22.167Z,25.03
2018-11-10T21:17:51.011Z,22.33
2018-11-10T21:20:19.976Z,23.10
2018-11-10T21:22:48.759Z,21.47
2018-11-10T21:25:18.031Z,23.17
2018-11-10T21:27:47.333Z,22.40
2018-11-10T21:30:17.547Z,22.27
2018-11-10T21:32:46.960Z,22.47
2018-11-10T21:35:16.004Z,23.07
2018-11-10T21:37:44.775Z,23.70
2018-11-10T21:40:15.870Z,21.83
2018-11-10T21:42:44.814Z,21.00
2018-11-10T21:45:14.497Z,20.57
2018-11-10T21:47:43.701Z,21.20
2018-11-10T21:50:13.903Z,22.07
2018-11-10T21:52:43.499Z,22.17
2018-11-10T21:55:13.736Z,21.17
2018-11-10T21:57:43.359Z,21.43
2018-11-10T22:00:16.616Z,20.07
2018-11-10T22:02:46.179Z,21.73
2018-11-10T22:05:15.101Z,18.47
2018-11-10T22:07:44.463Z,20.50
2018-11-10T22:10:14.609Z,19.30
2018-11-10T22:12:43.748Z,19.30
2018-11-10T22:15:15.954Z,19.00
2018-11-10T22:17:45.314Z,17.57
2018-11-10T22:20:15.460Z,18.40
2018-11-10T22:22:44.399Z,17.30
2018-11-10T22:25:13.728Z,18.77
2018-11-10T22:27:44.073Z,17.10
2018-11-10T22:30:14.079Z,16.73
2018-11-10T22:32:43.483Z,16.83
2018-11-10T22:35:12.419Z,17.87
2018-11-10T22:37:41.288Z,16.87
2018-11-10T22:40:12.191Z,18.00
2018-11-10T22:42:41.496Z,15.77
2018-11-10T22:45:12.119Z,15.90
2018-11-10T22:47:41.460Z,16.43
2018-11-10T22:50:14.049Z,16.83
2018-11-10T22:52:43.279Z,18.67
2018-11-10T22:55:12.180Z,17.43
2018-11-10T22:57:41.294Z,17.27
2018-11-10T23:00:17.192Z,15.53
2018-11-10T23:02:49.524Z,16.57
2018-11-10T23:05:18.935Z,16.23
2018-11-10T23:07:47.795Z,16.50
2018-11-10T23:10:17.220Z,16.77
2018-11-10T23:12:47.131Z,17.63
2018-11-10T23:15:16.026Z,16.73
2018-11-10T23:17:44.933Z,14.07
2018-11-10T23:20:16.139Z,15.50
2018-11-10T23:22:45.572Z,16.87
2018-11-10T23:25:15.808Z,16.23
2018-11-10T23:27:44.666Z,17.50
2018-11-10T23:30:17.059Z,16.33
2018-11-10T23:32:45.975Z,17.90
2018-11-10T23:35:14.859Z,15.00
2018-11-10T23:37:43.738Z,17.17
2018-11-10T23:40:13.942Z,16.50
2018-11-10T23:42:43.142Z,15.83
2018-11-10T23:45:12.748Z,15.40
2018-11-10T23:47:41.679Z,16.90
2018-11-10T23:50:13.214Z,15.43
2018-11-10T23:52:42.080Z,15.70
2018-11-10T23:55:11.771Z,14.33
2018-11-10T23:57:40.687Z,15.30
